createdAt,value
2019-04-20T00:00:51.087Z,11.13
2019-04-20T00:03:18.088Z,14.10
2019-04-20T00:05:48.968Z,12.50
2019-04-20T00:08:23.166Z,18.60
2019-04-20T00:10:58.322Z,12.93
2019-04-20T00:13:30.876Z,12.83
2019-04-20T00:15:51.318Z,10.50
2019-04-20T00:18:21.112Z,15.83
2019-04-20T00:21:03.944Z,17.53
2019-04-20T00:23:38.379Z,12.40
2019-04-20T00:27:06.497Z,14.20
2019-04-20T00:29:25.124Z,14.93
2019-04-20T00:31:50.329Z,14.77
2019-04-20T00:34:18.342Z,14.10
2019-04-20T00:36:43.314Z,11.00
2019-04-20T00:39:15.197Z,16.53
2019-04-20T00:41:52.103Z,13.63
2019-04-20T00:44:22.286Z,11.10
2019-04-20T00:47:05.884Z,14.73
2019-04-20T00:49:34.893Z,13.57
2019-04-20T00:52:19.134Z,12.80
2019-04-20T00:54:22.363Z,12.50
2019-04-20T00:57:07.861Z,13.50
2019-04-20T00:59:35.297Z,13.73
2019-04-20T01:02:15.605Z,14.70
2019-04-20T01:04:50.841Z,13.60
2019-04-20T01:07:32.008Z,13.90
2019-04-20T01:09:58.322Z,10.20
2019-04-20T01:12:31.717Z,10.23
2019-04-20T01:15:05.834Z,10.00
2019-04-20T01:17:34.030Z,12.33
2019-04-20T01:20:05.864Z,13.60
2019-04-20T01:22:45.517Z,10.07
2019-04-20T01:25:15.149Z,13.57
2019-04-20T01:27:58.933Z,10.20
2019-04-20T01:30:20.760Z,9.97
2019-04-20T01:33:12.733Z,10.90
2019-04-20T01:35:34.417Z,10.60
2019-04-20T01:38:00.230Z,10.77
2019-04-20T01:40:17.191Z,12.33
2019-04-20T01:42:46.923Z,10.77
2019-04-20T01:45:22.507Z,13.93
2019-04-20T01:47:52.746Z,9.97
2019-04-20T01:50:24.656Z,11.70
2019-04-20T01:53:01.626Z,11.90
2019-04-20T01:55:42.435Z,12.43
2019-04-20T01:58:54.662Z,9.23
2019-04-20T02:01:39.646Z,12.70
2019-04-20T02:04:19.181Z,11.27
2019-04-20T02:06:48.577Z,8.67
2019-04-20T02:09:19.171Z,9.60
2019-04-20T02:11:47.366Z,9.90
2019-04-20T02:14:25.562Z,8.73
2019-04-20T02:16:52.764Z,11.03
2019-04-20T02:19:30.416Z,13.90
2019-04-20T02:22:03.550Z,10.00
2019-04-20T02:24:19.638Z,10.03
2019-04-20T02:26:50.102Z,9.53
2019-04-20T02:29:43.188Z,10.60
2019-04-20T02:35:14.234Z,9.07
2019-04-20T02:37:56.926Z,9.73
2019-04-20T02:40:15.939Z,12.50
2019-04-20T02:42:53.973Z,12.17
2019-04-20T02:45:28.909Z,12.23
2019-04-20T02:47:56.683Z,10.70
2019-04-20T02:50:20.557Z,9.00
2019-04-20T02:52:56.390Z,8.40
2019-04-20T02:55:26.385Z,9.83
2019-04-20T03:00:19.433Z,12.60
2019-04-20T03:02:38.596Z,11.43
2019-04-20T03:05:06.678Z,13.80
2019-04-20T03:07:41.461Z,10.40
2019-04-20T03:10:17.241Z,10.27
2019-04-20T03:12:50.740Z,10.83
2019-04-20T03:15:21.832Z,11.43
2019-04-20T03:17:51.101Z,11.03
2019-04-20T03:20:22.121Z,10.67
2019-04-20T03:23:15.904Z,14.37
2019-04-20T03:25:43.115Z,11.20
2019-04-20T03:28:15.499Z,14.23
2019-04-20T03:31:20.936Z,12.27
2019-04-20T03:33:47.486Z,12.10
2019-04-20T03:36:07.618Z,9.97
2019-04-20T03:38:20.234Z,12.17
2019-04-20T03:40:48.321Z,13.23
2019-04-20T03:43:07.642Z,9.93
2019-04-20T03:45:45.952Z,10.30
2019-04-20T03:48:21.330Z,12.00
2019-04-20T03:50:57.761Z,11.60
2019-04-20T03:53:29.307Z,10.77
2019-04-20T03:56:30.896Z,12.57
2019-04-20T03:58:55.445Z,13.13
2019-04-20T04:02:15.896Z,10.53
2019-04-20T04:04:38.862Z,11.07
2019-04-20T04:06:53.859Z,11.50
2019-04-20T04:09:30.516Z,12.10
2019-04-20T04:12:04.041Z,13.60
2019-04-20T04:14:19.858Z,12.70
2019-04-20T04:16:53.851Z,17.27
2019-04-20T04:19:25.188Z,14.60
2019-04-20T04:22:04.199Z,12.97
2019-04-20T04:24:31.503Z,14.70
2019-04-20T04:27:05.713Z,12.60
2019-04-20T04:29:41.920Z,11.53
2019-04-20T04:32:21.102Z,14.00
2019-04-20T04:34:47.619Z,14.30
2019-04-20T04:37:16.409Z,14.33
2019-04-20T04:39:49.150Z,12.03
2019-04-20T04:42:22.271Z,14.17
2019-04-20T04:44:40.139Z,15.83
2019-04-20T04:47:04.802Z,13.10
2019-04-20T04:49:36.668Z,13.33
2019-04-20T04:52:08.147Z,13.33
2019-04-20T04:54:43.851Z,13.20
2019-04-20T04:57:05.284Z,12.80
2019-04-20T04:59:34.514Z,13.30
2019-04-20T05:02:05.334Z,13.83
2019-04-20T05:05:17.743Z,11.90
2019-04-20T05:07:43.847Z,13.13
2019-04-20T05:10:01.571Z,11.20
2019-04-20T05:12:33.537Z,13.77
2019-04-20T05:15:10.228Z,12.60
2019-04-20T05:17:52.831Z,12.23
2019-04-20T05:20:23.059Z,9.97
2019-04-20T05:23:01.236Z,11.03
2019-04-20T05:26:07.404Z,9.57
2019-04-20T05:28:30.901Z,12.40
2019-04-20T05:30:54.999Z,20.67
2019-04-20T05:33:30.288Z,10.57
2019-04-20T05:36:11.750Z,17.07
2019-04-20T05:39:02.762Z,10.50
2019-04-20T05:41:11.671Z,9.00
2019-04-20T05:44:02.061Z,11.07
2019-04-20T05:46:31.047Z,11.50
2019-04-20T05:49:13.401Z,8.90
2019-04-20T05:51:42.432Z,14.20
2019-04-20T05:54:09.860Z,11.10
2019-04-20T05:56:39.969Z,7.83
2019-04-20T05:59:09.790Z,9.90
2019-04-20T06:01:39.685Z,8.53
2019-04-20T06:04:11.599Z,9.83
2019-04-20T06:09:30.744Z,9.17
2019-04-20T06:12:01.349Z,9.90
2019-04-20T06:14:08.208Z,8.40
2019-04-20T06:17:11.237Z,8.60
2019-04-20T06:19:39.569Z,11.10
2019-04-20T06:22:27.267Z,9.20
2019-04-20T06:25:19.622Z,7.37
2019-04-20T06:27:34.231Z,11.00
2019-04-20T06:30:00.433Z,21.83
2019-04-20T06:32:55.434Z,14.47
2019-04-20T06:35:43.542Z,9.30
2019-04-20T06:38:06.890Z,11.17
2019-04-20T06:40:47.327Z,8.67
2019-04-20T06:42:59.973Z,12.57
2019-04-20T06:45:35.024Z,8.80
2019-04-20T06:47:58.009Z,12.73
2019-04-20T06:50:29.264Z,9.67
2019-04-20T06:53:17.262Z,11.53
2019-04-20T06:55:51.080Z,9.77
2019-04-20T06:58:31.857Z,12.93
2019-04-20T07:00:46.555Z,7.43
2019-04-20T07:03:31.513Z,7.30
2019-04-20T07:05:49.261Z,12.03
2019-04-20T07:08:34.656Z,9.60
2019-04-20T07:11:02.241Z,24.90
2019-04-20T07:13:12.852Z,16.23
2019-04-20T07:15:56.957Z,10.50
2019-04-20T07:18:35.768Z,7.10
2019-04-20T07:21:16.060Z,10.87
2019-04-20T07:23:51.313Z,9.03
2019-04-20T07:26:17.046Z,11.80
2019-04-20T07:31:14.840Z,10.60
2019-04-20T07:33:47.993Z,9.50
2019-04-20T07:36:24.372Z,12.17
2019-04-20T07:39:05.562Z,8.20
2019-04-20T07:41:29.844Z,15.60
2019-04-20T07:44:04.445Z,6.63
2019-04-20T07:46:34.611Z,13.67
2019-04-20T07:48:54.322Z,13.13
2019-04-20T07:51:12.483Z,6.23
2019-04-20T07:53:58.658Z,17.80
2019-04-20T07:56:30.563Z,6.73
2019-04-20T07:58:46.058Z,8.20
2019-04-20T08:01:38.751Z,5.00
2019-04-20T08:04:10.273Z,6.97
2019-04-20T08:06:28.898Z,8.73
2019-04-20T08:09:08.725Z,6.80
2019-04-20T08:11:48.765Z,5.70
2019-04-20T08:14:22.204Z,5.83
2019-04-20T08:17:05.431Z,7.93
2019-04-20T08:19:16.298Z,18.77
2019-04-20T08:21:48.560Z,12.30
2019-04-20T08:24:17.566Z,8.77
2019-04-20T08:26:41.348Z,6.43
2019-04-20T08:29:21.464Z,6.60
2019-04-20T08:32:11.687Z,4.33
2019-04-20T08:34:50.404Z,10.57
2019-04-20T08:37:17.016Z,10.03
2019-04-20T08:39:58.794Z,6.93
2019-04-20T08:42:16.453Z,5.87
2019-04-20T08:45:00.170Z,6.00
2019-04-20T08:47:35.154Z,13.63
2019-04-20T08:50:20.974Z,7.60
2019-04-20T08:55:19.978Z,24.53
2019-04-20T08:57:33.581Z,9.13
2019-04-20T09:00:06.566Z,9.80
2019-04-20T09:02:41.229Z,5.80
2019-04-20T09:05:28.120Z,13.87
2019-04-20T09:07:53.582Z,9.50
2019-04-20T09:10:34.344Z,4.43
2019-04-20T09:12:57.397Z,5.80
2019-04-20T09:15:19.019Z,4.00
2019-04-20T09:18:00.594Z,6.83
2019-04-20T09:20:36.549Z,7.30
2019-04-20T09:23:19.350Z,8.03
2019-04-20T09:26:04.929Z,8.40
2019-04-20T09:28:25.547Z,9.37
2019-04-20T09:31:01.843Z,5.10
2019-04-20T09:34:00.286Z,3.43
2019-04-20T09:36:29.943Z,8.93
2019-04-20T09:39:30.453Z,4.40
2019-04-20T09:42:09.331Z,14.63
2019-04-20T09:44:43.841Z,9.93
2019-04-20T09:47:10.997Z,14.63
2019-04-20T09:49:54.085Z,5.90
2019-04-20T09:52:27.000Z,7.47
2019-04-20T09:55:00.472Z,6.20
2019-04-20T09:57:33.426Z,4.60
2019-04-20T10:00:01.803Z,6.70
2019-04-20T10:02:24.005Z,10.07
2019-04-20T10:04:51.205Z,6.07
2019-04-20T10:07:25.227Z,7.90
2019-04-20T10:09:53.855Z,4.77
2019-04-20T10:12:24.183Z,10.47
2019-04-20T10:14:57.629Z,14.13
2019-04-20T10:17:28.065Z,19.23
2019-04-20T10:19:57.721Z,4.83
2019-04-20T10:22:28.706Z,6.23
2019-04-20T10:24:59.074Z,8.00
2019-04-20T10:27:30.670Z,7.30
2019-04-20T10:30:03.794Z,7.40
2019-04-20T10:32:37.741Z,7.50
2019-04-20T10:35:04.502Z,7.37
2019-04-20T10:37:39.777Z,5.37
2019-04-20T10:40:11.368Z,4.73
2019-04-20T10:42:41.849Z,16.73
2019-04-20T10:45:12.854Z,17.57
2019-04-20T10:47:43.159Z,8.70
2019-04-20T10:50:13.347Z,12.03
2019-04-20T10:52:43.691Z,7.60
2019-04-20T10:55:14.717Z,5.67
2019-04-20T10:57:45.787Z,7.00
2019-04-20T11:00:17.246Z,8.73
2019-04-20T11:02:49.108Z,5.27
2019-04-20T11:05:18.649Z,7.53
2019-04-20T11:07:48.467Z,9.93
2019-04-20T11:10:25.000Z,6.37
2019-04-20T11:12:50.551Z,5.00
2019-04-20T11:15:20.919Z,11.00
2019-04-20T11:17:51.417Z,5.63
2019-04-20T11:20:21.514Z,5.50
2019-04-20T11:22:52.578Z,6.40
2019-04-20T11:25:22.555Z,7.40
2019-04-20T11:27:52.323Z,6.23
2019-04-20T11:30:22.500Z,6.40
2019-04-20T11:32:52.297Z,10.83
2019-04-20T11:35:28.030Z,9.03
2019-04-20T11:37:53.539Z,11.20
2019-04-20T11:40:23.419Z,9.23
2019-04-20T11:42:53.394Z,7.73
2019-04-20T11:45:24.412Z,8.20
2019-04-20T11:47:55.652Z,4.87
2019-04-20T11:50:25.579Z,8.80
2019-04-20T11:52:55.333Z,9.60
2019-04-20T11:55:26.526Z,7.70
2019-04-20T11:57:58.291Z,8.23
2019-04-20T12:00:47.149Z,8.50
2019-04-20T12:03:29.282Z,28.43
2019-04-20T12:05:56.956Z,4.40
2019-04-20T12:08:24.999Z,8.03
2019-04-20T12:10:59.515Z,4.87
2019-04-20T12:13:26.872Z,4.67
2019-04-20T12:15:57.062Z,4.63
2019-04-20T12:18:27.602Z,9.20
2019-04-20T12:20:58.794Z,11.10
2019-04-20T12:23:28.650Z,4.50
2019-04-20T12:25:59.672Z,7.23
2019-04-20T12:28:29.647Z,6.83
2019-04-20T12:31:06.349Z,4.80
2019-04-20T12:33:32.491Z,5.50
2019-04-20T12:36:03.090Z,6.63
2019-04-20T12:38:32.934Z,4.10
2019-04-20T12:41:04.850Z,4.60
2019-04-20T12:43:35.978Z,3.73
2019-04-20T12:46:05.952Z,5.37
2019-04-20T12:48:35.639Z,3.57
2019-04-20T12:51:06.250Z,5.03
2019-04-20T12:53:35.979Z,7.13
2019-04-20T12:56:06.500Z,3.17
2019-04-20T12:58:36.649Z,4.40
2019-04-20T13:01:06.601Z,3.10
2019-04-20T13:03:37.325Z,4.30
2019-04-20T13:06:07.983Z,9.03
2019-04-20T13:08:42.181Z,3.13
2019-04-20T13:11:16.269Z,4.60
2019-04-20T13:14:26.249Z,5.57
2019-04-20T13:16:57.035Z,8.03
2019-04-20T13:19:27.064Z,4.27
2019-04-20T13:21:56.916Z,3.50
2019-04-20T13:24:27.215Z,5.60
2019-04-20T13:26:56.950Z,3.20
2019-04-20T13:29:26.823Z,4.40
2019-04-20T13:31:57.276Z,2.87
2019-04-20T13:34:28.465Z,3.10
2019-04-20T13:37:00.077Z,3.20
2019-04-20T13:39:30.930Z,4.63
2019-04-20T13:42:10.506Z,2.97
2019-04-20T13:44:32.660Z,10.30
2019-04-20T13:47:03.094Z,5.20
2019-04-20T13:49:33.877Z,3.10
2019-04-20T13:52:04.616Z,3.23
2019-04-20T13:54:34.631Z,3.60
2019-04-20T13:57:06.318Z,5.90
2019-04-20T13:59:44.065Z,3.70
2019-04-20T14:02:33.168Z,3.57
2019-04-20T14:05:06.637Z,3.47
2019-04-20T14:07:37.566Z,7.30
2019-04-20T14:10:09.210Z,4.67
2019-04-20T14:12:50.746Z,7.10
2019-04-20T14:15:11.362Z,8.23
2019-04-20T14:17:41.433Z,6.13
2019-04-20T14:20:15.028Z,9.07
2019-04-20T14:22:43.512Z,5.37
2019-04-20T14:25:13.285Z,4.43
2019-04-20T14:27:42.929Z,3.93
2019-04-20T14:30:13.150Z,3.50
2019-04-20T14:32:43.007Z,5.50
2019-04-20T14:35:12.885Z,4.47
2019-04-20T14:37:43.791Z,4.70
2019-04-20T14:40:14.570Z,3.00
2019-04-20T14:42:49.965Z,2.90
2019-04-20T14:45:18.473Z,9.30
2019-04-20T14:47:48.239Z,4.83
2019-04-20T14:50:18.424Z,3.13
2019-04-20T14:52:49.361Z,3.57
2019-04-20T14:55:20.733Z,14.13
2019-04-20T14:57:53.103Z,5.50
2019-04-20T15:00:43.672Z,8.07
2019-04-20T15:03:30.205Z,3.50
2019-04-20T15:06:03.117Z,2.90
2019-04-20T15:08:34.460Z,2.90
2019-04-20T15:11:05.172Z,9.83
2019-04-20T15:13:34.981Z,7.77
2019-04-20T15:16:06.561Z,2.83
2019-04-20T15:18:40.136Z,3.17
2019-04-20T15:21:11.453Z,3.30
2019-04-20T15:23:41.592Z,8.33
2019-04-20T15:26:12.725Z,5.20
2019-04-20T15:28:42.543Z,5.33
2019-04-20T15:31:14.307Z,3.60
2019-04-20T15:33:45.284Z,3.77
2019-04-20T15:36:15.917Z,8.30
2019-04-20T15:38:46.873Z,4.87
2019-04-20T15:41:18.533Z,4.30
2019-04-20T15:43:49.569Z,5.83
2019-04-20T15:46:19.467Z,5.17
2019-04-20T15:48:50.248Z,6.00
2019-04-20T15:51:20.045Z,4.60
2019-04-20T15:53:51.493Z,6.00
2019-04-20T15:56:22.628Z,4.90
2019-04-20T15:58:52.553Z,5.37
2019-04-20T16:01:26.086Z,3.80
2019-04-20T16:04:01.479Z,4.17
2019-04-20T16:06:31.572Z,4.07
2019-04-20T16:09:04.130Z,4.10
2019-04-20T16:11:35.084Z,4.90
2019-04-20T16:14:05.458Z,4.50
2019-04-20T16:16:35.457Z,7.97
2019-04-20T16:19:14.657Z,4.70
2019-04-20T16:21:37.480Z,4.50
2019-04-20T16:24:11.074Z,4.57
2019-04-20T16:26:49.477Z,3.90
2019-04-20T16:29:19.824Z,4.83
2019-04-20T16:31:50.753Z,6.83
2019-04-20T16:34:21.391Z,6.40
2019-04-20T16:36:54.341Z,5.87
2019-04-20T16:39:22.645Z,6.20
2019-04-20T16:41:52.438Z,9.50
2019-04-20T16:44:23.109Z,5.13
2019-04-20T16:46:54.200Z,10.40
2019-04-20T16:49:25.342Z,13.10
2019-04-20T16:51:55.140Z,6.67
2019-04-20T16:54:25.916Z,7.43
2019-04-20T16:56:56.857Z,9.70
2019-04-20T16:59:26.652Z,7.07
2019-04-20T17:01:56.345Z,5.80
2019-04-20T17:04:26.941Z,7.10
2019-04-20T17:07:16.382Z,6.57
2019-04-20T17:09:47.412Z,7.53
2019-04-20T17:12:17.746Z,9.47
2019-04-20T17:14:47.997Z,5.83
2019-04-20T17:17:17.892Z,12.30
2019-04-20T17:19:49.300Z,7.10
2019-04-20T17:22:19.331Z,7.97
2019-04-20T17:24:49.575Z,13.90
2019-04-20T17:27:48.881Z,12.43
2019-04-20T17:30:49.072Z,12.63
2019-04-20T17:33:25.777Z,15.63
2019-04-20T17:36:03.237Z,14.03
2019-04-20T17:38:36.110Z,17.17
2019-04-20T17:41:13.703Z,9.37
2019-04-20T17:43:43.775Z,8.13
2019-04-20T17:46:10.154Z,9.90
2019-04-20T17:48:45.061Z,14.83
2019-04-20T17:51:29.032Z,9.97
2019-04-20T17:53:59.972Z,10.90
2019-04-20T17:56:28.684Z,8.70
2019-04-20T17:58:58.571Z,13.13
2019-04-20T18:02:02.170Z,9.70
2019-04-20T18:04:53.792Z,11.20
2019-04-20T18:07:10.948Z,10.23
2019-04-20T18:09:49.291Z,15.00
2019-04-20T18:12:04.448Z,12.00
2019-04-20T18:14:43.298Z,13.73
2019-04-20T18:17:17.721Z,10.03
2019-04-20T18:19:47.082Z,14.60
2019-04-20T18:22:16.861Z,14.80
2019-04-20T18:25:07.597Z,17.23
2019-04-20T18:27:38.807Z,15.23
2019-04-20T18:30:06.619Z,15.63
2019-04-20T18:32:25.444Z,14.80
2019-04-20T18:35:02.608Z,19.80
2019-04-20T18:37:31.036Z,14.03
2019-04-20T18:40:06.170Z,17.63
2019-04-20T18:42:39.877Z,16.37
2019-04-20T18:45:25.643Z,20.97
2019-04-20T18:47:55.130Z,24.93
2019-04-20T18:50:17.397Z,16.07
2019-04-20T18:52:40.047Z,16.30
2019-04-20T18:55:15.930Z,16.90
2019-04-20T18:57:44.449Z,20.50
2019-04-20T19:00:22.528Z,20.40
2019-04-20T19:02:52.630Z,22.27
2019-04-20T19:05:20.218Z,20.00
2019-04-20T19:07:57.846Z,20.23
2019-04-20T19:10:27.181Z,21.33
2019-04-20T19:13:01.621Z,25.10
2019-04-20T19:16:03.722Z,21.93
2019-04-20T19:18:50.760Z,26.63
2019-04-20T19:21:09.107Z,27.63
2019-04-20T19:23:47.617Z,27.63
2019-04-20T19:26:16.328Z,35.97
2019-04-20T19:28:48.068Z,24.50
2019-04-20T19:31:28.925Z,28.20
2019-04-20T19:34:07.174Z,24.37
2019-04-20T19:36:26.321Z,24.60
2019-04-20T19:39:01.161Z,24.07
2019-04-20T19:41:31.983Z,21.63
2019-04-20T19:44:04.324Z,21.53
2019-04-20T19:49:02.874Z,23.60
2019-04-20T19:51:49.335Z,18.17
2019-04-20T19:54:18.942Z,21.17
2019-04-20T19:56:43.940Z,18.70
2019-04-20T19:59:10.959Z,19.20
2019-04-20T20:01:31.693Z,22.50
2019-04-20T20:04:05.706Z,22.30
2019-04-20T20:06:42.368Z,25.50
2019-04-20T20:09:09.535Z,22.70
2019-04-20T20:11:43.966Z,20.00
2019-04-20T20:14:13.333Z,22.00
2019-04-20T20:17:04.226Z,51.40
2019-04-20T20:19:29.410Z,26.37
2019-04-20T20:22:00.191Z,31.20
2019-04-20T20:24:18.003Z,25.53
2019-04-20T20:26:53.407Z,24.87
2019-04-20T20:29:28.425Z,37.93
2019-04-20T20:32:04.990Z,28.70
2019-04-20T20:34:28.718Z,24.20
2019-04-20T20:37:00.077Z,40.33
2019-04-20T20:39:29.503Z,24.53
2019-04-20T20:42:06.575Z,30.60
2019-04-20T20:44:40.223Z,27.90
2019-04-20T20:47:18.643Z,29.23
2019-04-20T20:49:48.608Z,29.83
2019-04-20T20:52:17.307Z,25.37
2019-04-20T20:54:44.262Z,26.83
2019-04-20T20:57:07.412Z,29.40
2019-04-20T20:59:44.812Z,25.27
2019-04-20T21:02:11.514Z,26.87
2019-04-20T21:04:33.924Z,26.27
2019-04-20T21:07:04.711Z,32.30
2019-04-20T21:09:33.851Z,29.50
2019-04-20T21:12:08.474Z,31.70
2019-04-20T21:14:38.397Z,28.50
2019-04-20T21:17:10.804Z,26.30
2019-04-20T21:19:53.679Z,24.30
2019-04-20T21:22:13.400Z,26.40
2019-04-20T21:24:40.005Z,32.73
2019-04-20T21:27:14.585Z,27.47
2019-04-20T21:29:44.376Z,26.13
2019-04-20T21:32:14.724Z,29.00
2019-04-20T21:34:51.306Z,29.13
2019-04-20T21:37:18.870Z,27.73
2019-04-20T21:39:53.354Z,27.33
2019-04-20T21:42:21.001Z,26.17
2019-04-20T21:44:50.802Z,26.43
2019-04-20T21:47:23.785Z,28.10
2019-04-20T21:50:03.140Z,28.03
2019-04-20T21:52:31.735Z,27.17
2019-04-20T21:54:54.139Z,26.20
2019-04-20T21:57:26.211Z,29.33
2019-04-20T22:00:08.368Z,27.50
2019-04-20T22:02:32.835Z,30.53
2019-04-20T22:05:01.264Z,26.93
2019-04-20T22:07:32.371Z,28.83
2019-04-20T22:10:02.458Z,26.50
2019-04-20T22:12:39.724Z,25.73
2019-04-20T22:15:13.914Z,27.60
2019-04-20T22:17:37.449Z,26.33
2019-04-20T22:20:22.541Z,25.93
2019-04-20T22:22:53.630Z,29.50
2019-04-20T22:25:30.695Z,26.30
2019-04-20T22:27:42.555Z,26.53
2019-04-20T22:30:14.337Z,28.07
2019-04-20T22:32:48.094Z,27.23
2019-04-20T22:35:17.395Z,26.13
2019-04-20T22:38:15.343Z,26.30
2019-04-20T22:40:43.208Z,29.97
2019-04-20T22:43:17.984Z,26.20
2019-04-20T22:45:49.685Z,27.23
2019-04-20T22:48:18.011Z,25.27
2019-04-20T22:51:10.170Z,24.63
2019-04-20T22:53:33.540Z,28.23
2019-04-20T22:56:13.698Z,30.20
2019-04-20T22:58:33.602Z,28.53
2019-04-20T23:00:57.792Z,25.00
2019-04-20T23:03:25.008Z,27.20
2019-04-20T23:05:54.719Z,28.57
2019-04-20T23:08:24.782Z,30.77
2019-04-20T23:10:55.644Z,30.27
2019-04-20T23:13:29.517Z,31.53
2019-04-20T23:16:00.820Z,26.73
2019-04-20T23:18:28.488Z,29.10
2019-04-20T23:21:01.292Z,29.00
2019-04-20T23:23:30.963Z,28.90
2019-04-20T23:26:01.207Z,33.13
2019-04-20T23:28:31.313Z,31.20
2019-04-20T23:31:07.346Z,29.67
2019-04-20T23:33:32.649Z,33.90
2019-04-20T23:36:05.091Z,33.97
2019-04-20T23:38:34.759Z,34.57
2019-04-20T23:41:04.041Z,30.07
2019-04-20T23:43:40.612Z,33.13
2019-04-20T23:46:28.323Z,33.07
2019-04-20T23:49:23.249Z,30.57
2019-04-20T23:52:05.931Z,38.33
2019-04-20T23:54:22.123Z,35.13
2019-04-20T23:56:47.882Z,37.63
2019-04-20T23:59:19.095Z,35.33
